Sully Station, Virginia
Current Conditions -  °F | °C
As of 3:52 PM on Thursday 23 Oct 2014 (Local Time) from KIAD Reporting Station
Broken Clouds Broken Clouds  
Wind Chill: 61°   Ceiling: 4600
Heat Index: 61°   Visibility: 10mi
Dew Point: 44°   Wind: 20mph
Humidity: 54%   Direction: 330°NNW
Pressure: 29.88"   Gusts: 32mph
Location:  38.853°N, 77.4732°W
Report Text: KIAD 231952Z 33017G28KT 10SM BKN046 BKN070 16/07 A2988 RMK AO2 PK WND 30031/1904 SLP119 T01610067
Loading
Personal Weather Stations






























Interactive Weather Map
Tropical Storm Tracking
New forecast layout! Learn more

10-Day Weather Forecast

Advertisements
Track Severe Weather on mobile